イルクーツク の空港の天気 - METARとTAF

イルクーツク国際空港 ( UIII / IKT ) - ロシア イルクーツク
飛行場実況気象(Metar)
観測時間05/25 18:00 +08 (05/25 10:00 UTC)
風向・風速北東 2m/s
視程10km以上
天気現象
なし
気温32℃
湿度18%
気圧1001hPa
METARUIII 251000Z 04002MPS 360V120 CAVOK 32/05 Q1001 R30/CLRD60 NOSIG RMK QFE707/0943
過去の天気等 Google飛行場航空写真 Wunderground天気予報

過去48時間のMETAR

飛行場予報(TAF)
発表時間: 5/25 16:00 +08 (5/25 08:00 UTC)
予報対象時間: 25日17時 +08 ~ 26日17時 +08
風向・風速西北西 3m/s
視程10km以上
なし
25日23時 +08 ~ 26日1時 +08 に徐々に
風向・風速北西 8m/s 瞬間風速 13m/s
全天の8割程度の積乱雲 雲底高度 460m
25日23時 +08 ~ 26日14時 +08 に一時的に
風向・風速北西 15m/s 瞬間風速 20m/s
視程2,500m
天気現象弱いしゅう雨
全天の8割程度の積乱雲 雲底高度 210m
TAF UIII 250800Z 2509/2609 30003MPS 9999 NSC
BECMG 2515/2517 32008G13MPS BKN015CB
TEMPO 2515/2606 32015G20MPS 2500 -SHRA BKN007CB